Tapirai, Brazil
Current Conditions -  °F | °C
As of 6:00 AM on Monday 22 Dec 2014 (Local Time) from SBUR Reporting Station
Broken Clouds Broken Clouds  
Wind Chill: 70°   Ceiling: 9000
Heat Index: 70°   Visibility: 6mi
Dew Point: 70°   Wind: 7mph
Humidity: 100%   Direction: 360°N
Pressure: 30"   Gusts: NA
Location:  19.89°S, 46.02°W
Report Text: SBUR 220800Z 36006KT 9999 SCT020 BKN090 21/21 Q1016
Loading
Personal Weather Stations






























Interactive Weather Map New forecast layout! Learn more

10-Day Weather Forecast

Advertisements
Track Severe Weather on mobile